Time;durP1;ratioP1;P1;durP2;ratioP2;P2;SDS_P1;SDS_P2;PMS_P1;PMS_P2;Temp;Humidity;BMP_temperature;BMP_pressure;BME280_temperature;BME280_humidity;BME280_pressure;Samples;Min_cycle;Max_cycle;Signal;HPM_P1;HPM_P2
2023/04/21 00:01:38;;;;;;;19.73;7.75;;;20.30;57.20;;;;;;5011000;28;20079;-78
2023/04/21 00:04:04;;;;;;;25.60;6.82;;;20.40;57.30;;;;;;5010811;28;20022;-78
2023/04/21 00:06:31;;;;;;;18.83;7.22;;;20.30;57.20;;;;;;5009955;28;20030;-77
2023/04/21 00:08:57;;;;;;;17.67;7.50;;;20.30;57.10;;;;;;5009655;28;20030;-78
2023/04/21 00:11:23;;;;;;;18.17;7.82;;;20.30;57.00;;;;;;5011089;28;20025;-78
2023/04/21 00:13:49;;;;;;;16.40;7.32;;;20.30;57.10;;;;;;5010953;28;20029;-78
2023/04/21 00:16:14;;;;;;;14.05;7.15;;;20.30;57.10;;;;;;5009694;28;20034;-78
2023/04/21 00:18:40;;;;;;;18.23;7.35;;;20.30;57.10;;;;;;5010796;28;20506;-77
2023/04/21 00:21:06;;;;;;;16.42;7.25;;;20.30;57.10;;;;;;5010964;28;20084;-78
2023/04/21 00:23:32;;;;;;;16.55;7.35;;;20.30;57.00;;;;;;5010530;28;20058;-78
2023/04/21 00:26:01;;;;;;;18.63;7.75;;;20.30;57.00;;;;;;5011068;28;20036;-78
2023/04/21 00:28:27;;;;;;;18.27;6.53;;;20.30;57.00;;;;;;5010707;28;20030;-78
2023/04/21 00:30:53;;;;;;;18.95;6.82;;;20.30;57.00;;;;;;5010732;28;20110;-78
2023/04/21 00:33:19;;;;;;;13.55;6.78;;;20.30;57.00;;;;;;5009352;28;20448;-78
2023/04/21 00:35:45;;;;;;;16.08;7.38;;;20.30;56.90;;;;;;5009510;28;20116;-77
2023/04/21 00:38:11;;;;;;;15.02;6.88;;;20.30;57.00;;;;;;5009235;28;20121;-79
2023/04/21 00:40:37;;;;;;;13.98;6.57;;;20.30;57.00;;;;;;5010768;28;20029;-78
2023/04/21 00:43:07;;;;;;;15.93;7.13;;;20.30;57.00;;;;;;5009321;28;20757;-78
2023/04/21 00:45:32;;;;;;;17.37;7.30;;;20.30;56.90;;;;;;5025989;28;20104;-78
2023/04/21 00:47:58;;;;;;;15.68;6.50;;;20.30;57.00;;;;;;5009400;28;20049;-78
2023/04/21 00:50:24;;;;;;;15.95;6.63;;;20.30;57.00;;;;;;4993384;28;20033;-77
2023/04/21 00:52:50;;;;;;;17.13;6.95;;;20.30;57.00;;;;;;5026129;28;20036;-78
2023/04/21 00:55:16;;;;;;;14.27;6.75;;;20.30;57.10;;;;;;5012626;28;20566;-78
2023/04/21 00:57:43;;;;;;;14.07;6.22;;;20.30;57.00;;;;;;5012946;28;20032;-78
2023/04/21 01:00:09;;;;;;;17.80;7.13;;;20.30;57.00;;;;;;5029389;28;20056;-78
2023/04/21 01:02:37;;;;;;;15.52;6.30;;;20.30;57.00;;;;;;5013157;28;20033;-78
2023/04/21 01:05:08;;;;;;;17.40;6.40;;;20.30;57.00;;;;;;5013682;28;20053;-79
2023/04/21 01:07:34;;;;;;;13.38;6.07;;;20.30;57.10;;;;;;5012952;28;20466;-79
2023/04/21 01:10:01;;;;;;;19.20;6.38;;;20.30;56.90;;;;;;5013906;28;20032;-78
2023/04/21 01:12:29;;;;;;;13.90;6.45;;;20.30;56.90;;;;;;5029260;28;20404;-79
2023/04/21 01:14:58;;;;;;;17.45;6.55;;;20.30;56.90;;;;;;5012386;28;20042;-78
2023/04/21 01:17:24;;;;;;;15.05;6.07;;;20.30;57.00;;;;;;4996274;28;20604;-78
2023/04/21 01:19:52;;;;;;;13.45;6.18;;;20.30;56.80;;;;;;5013677;28;20385;-78
2023/04/21 01:22:18;;;;;;;13.63;5.78;;;20.30;57.00;;;;;;5012787;28;20067;-78
2023/04/21 01:24:46;;;;;;;14.23;6.00;;;20.30;56.90;;;;;;5012120;28;20049;-78
2023/04/21 01:27:17;;;;;;;15.07;6.40;;;20.30;57.00;;;;;;5028958;28;20488;-78
2023/04/21 01:29:45;;;;;;;12.25;5.90;;;20.30;57.00;;;;;;4979734;28;20030;-78
2023/04/21 01:32:20;;;;;;;16.58;6.57;;;20.30;57.00;;;;;;4980325;28;20038;-78
2023/04/21 01:34:48;;;;;;;13.57;6.53;;;20.30;56.90;;;;;;5012151;28;20034;-78
2023/04/21 01:37:17;;;;;;;12.55;6.00;;;20.30;57.00;;;;;;5028644;28;20033;-78
2023/04/21 01:39:59;;;;;;;14.63;6.03;;;20.30;57.00;;;;;;5013382;28;20033;-78
2023/04/21 01:42:27;;;;;;;13.95;6.22;;;20.30;57.00;;;;;;5028640;28;20034;-77
2023/04/21 01:44:53;;;;;;;13.15;6.53;;;20.30;56.90;;;;;;5028178;28;20527;-78
2023/04/21 01:47:20;;;;;;;16.55;6.53;;;20.30;56.80;;;;;;5012205;28;20045;-77
2023/04/21 01:49:46;;;;;;;11.30;5.88;;;20.30;56.90;;;;;;5013808;28;20041;-78
2023/04/21 01:52:11;;;;;;;14.40;6.53;;;20.30;57.00;;;;;;5012183;28;20420;-78
2023/04/21 01:54:37;;;;;;;13.32;6.00;;;20.30;57.10;;;;;;5011858;28;20026;-78
2023/04/21 01:57:03;;;;;;;15.70;6.18;;;20.30;57.20;;;;;;5012044;28;20041;-77
2023/04/21 01:59:29;;;;;;;10.63;5.60;;;20.30;57.00;;;;;;4995345;28;20578;-77
2023/04/21 02:01:55;;;;;;;15.52;6.35;;;20.30;57.10;;;;;;5011793;28;20073;-77
2023/04/21 02:04:24;;;;;;;12.45;6.13;;;20.30;57.00;;;;;;5011019;28;20029;-78
2023/04/21 02:06:50;;;;;;;12.02;5.72;;;20.30;57.00;;;;;;5012298;28;20463;-78
2023/04/21 02:09:15;;;;;;;15.05;5.85;;;20.30;57.00;;;;;;4995531;28;20244;-78
2023/04/21 02:11:41;;;;;;;14.52;5.82;;;20.30;57.20;;;;;;5012801;28;20040;-78
2023/04/21 02:14:07;;;;;;;12.57;5.88;;;20.30;57.10;;;;;;5011468;28;20447;-78
2023/04/21 02:16:33;;;;;;;12.38;5.60;;;20.30;57.10;;;;;;5011318;28;20037;-78
2023/04/21 02:18:59;;;;;;;14.15;5.95;;;20.30;57.20;;;;;;5012776;28;20045;-78
2023/04/21 02:21:26;;;;;;;14.48;5.72;;;20.30;57.10;;;;;;5012712;28;20109;-78
2023/04/21 02:23:52;;;;;;;13.60;5.80;;;20.30;57.00;;;;;;5011145;28;20460;-79
2023/04/21 02:26:18;;;;;;;12.85;6.07;;;20.20;57.00;;;;;;4995164;28;20509;-78
2023/04/21 02:28:44;;;;;;;12.50;5.07;;;20.20;57.00;;;;;;5012400;28;20030;-78
2023/04/21 02:31:10;;;;;;;13.38;5.57;;;20.20;56.90;;;;;;5011142;28;20550;-79
2023/04/21 02:33:36;;;;;;;12.85;6.20;;;20.20;56.90;;;;;;5011143;28;20108;-79
2023/04/21 02:36:02;;;;;;;11.77;5.45;;;20.20;57.00;;;;;;5012300;28;20028;-79
2023/04/21 02:38:29;;;;;;;12.30;5.97;;;20.20;56.90;;;;;;5027647;28;20061;-79
2023/04/21 02:40:56;;;;;;;12.60;5.45;;;20.30;56.90;;;;;;5027502;28;20026;-78
2023/04/21 02:43:21;;;;;;;11.70;5.57;;;20.20;56.90;;;;;;5012108;28;20022;-78
2023/04/21 02:45:47;;;;;;;12.25;6.20;;;20.30;56.80;;;;;;4994788;28;20614;-79
2023/04/21 02:48:13;;;;;;;10.60;5.63;;;20.20;56.90;;;;;;5012486;28;20026;-79
2023/04/21 02:50:41;;;;;;;12.45;5.75;;;20.20;56.90;;;;;;5027483;28;20484;-78
2023/04/21 02:53:07;;;;;;;12.00;5.55;;;20.20;56.80;;;;;;5010881;28;20038;-79
2023/04/21 02:55:32;;;;;;;10.80;5.38;;;20.20;56.90;;;;;;5011924;28;20025;-79
2023/04/21 02:57:58;;;;;;;11.73;5.80;;;20.20;56.90;;;;;;5010762;28;20113;-79
2023/04/21 03:00:24;;;;;;;12.88;6.07;;;20.30;57.00;;;;;;4994563;28;20057;-79
2023/04/21 03:02:52;;;;;;;12.18;5.75;;;20.30;56.80;;;;;;5010691;28;20105;-79
2023/04/21 03:05:17;;;;;;;11.93;5.88;;;20.30;56.90;;;;;;5011969;28;20026;-79
2023/04/21 03:07:46;;;;;;;10.95;5.38;;;20.30;56.90;;;;;;5010468;28;20052;-79
2023/04/21 03:10:12;;;;;;;12.35;5.20;;;20.20;56.80;;;;;;5010565;28;20030;-79
2023/04/21 03:12:38;;;;;;;11.35;5.80;;;20.20;56.90;;;;;;5026787;28;20072;-79
2023/04/21 03:15:04;;;;;;;11.35;5.60;;;20.30;56.80;;;;;;5010280;28;20484;-78
2023/04/21 03:17:30;;;;;;;9.25;5.30;;;20.20;57.00;;;;;;5010068;28;20587;-79
2023/04/21 03:19:56;;;;;;;9.88;5.38;;;20.20;56.80;;;;;;5010370;28;20101;-80
2023/04/21 03:22:22;;;;;;;10.35;5.40;;;20.20;56.80;;;;;;5010401;28;20071;-80
2023/04/21 03:24:48;;;;;;;8.23;4.93;;;20.20;56.80;;;;;;5026152;28;20029;-79
2023/04/21 03:27:13;;;;;;;14.98;6.05;;;20.20;56.90;;;;;;5029983;28;20410;-78
2023/04/21 03:29:39;;;;;;;12.63;5.97;;;20.20;56.70;;;;;;5029892;28;20041;-78
2023/04/21 03:32:05;;;;;;;11.88;5.35;;;20.20;56.80;;;;;;5031047;28;20053;-78
2023/04/21 03:34:31;;;;;;;10.20;5.60;;;20.20;56.80;;;;;;5029678;28;20486;-77
2023/04/21 03:36:59;;;;;;;11.75;6.05;;;20.20;56.70;;;;;;5029882;28;20116;-77
2023/04/21 03:39:25;;;;;;;13.85;5.70;;;20.20;56.70;;;;;;5029829;28;20360;-78
2023/04/21 03:41:52;;;;;;;9.98;5.05;;;20.20;56.70;;;;;;5013623;28;20034;-77
2023/04/21 03:44:18;;;;;;;11.55;5.90;;;20.20;56.70;;;;;;5029429;28;20041;-78
2023/04/21 03:46:43;;;;;;;14.57;6.03;;;20.20;56.70;;;;;;5029729;28;20030;-78
2023/04/21 03:49:09;;;;;;;11.45;5.72;;;20.20;56.80;;;;;;5030903;28;20514;-78
2023/04/21 03:51:35;;;;;;;10.48;5.43;;;20.20;56.70;;;;;;5029964;28;20494;-78
2023/04/21 03:54:01;;;;;;;10.95;5.32;;;20.30;56.80;;;;;;5030577;28;20109;-78
2023/04/21 03:56:26;;;;;;;10.63;5.22;;;20.20;56.70;;;;;;5029591;28;20021;-79
2023/04/21 03:58:52;;;;;;;9.40;5.38;;;20.20;56.80;;;;;;5029327;28;20054;-79
2023/04/21 04:01:18;;;;;;;13.60;5.82;;;20.30;56.80;;;;;;5029768;28;20391;-78
2023/04/21 04:03:44;;;;;;;9.65;5.30;;;20.20;56.70;;;;;;5030445;28;20087;-78
2023/04/21 04:06:10;;;;;;;11.82;5.60;;;20.30;56.70;;;;;;5030830;28;20391;-78
2023/04/21 04:08:36;;;;;;;11.55;5.63;;;20.30;56.80;;;;;;5030761;28;20028;-78
2023/04/21 04:11:01;;;;;;;10.55;6.20;;;20.30;56.70;;;;;;5031267;28;20021;-78
2023/04/21 04:13:28;;;;;;;11.88;5.68;;;20.30;56.50;;;;;;5030408;28;20064;-78
2023/04/21 04:15:54;;;;;;;11.77;5.65;;;20.30;56.60;;;;;;5030917;28;20025;-77
2023/04/21 04:18:20;;;;;;;10.77;5.40;;;20.30;56.60;;;;;;5030676;28;20447;-78
2023/04/21 04:20:45;;;;;;;12.80;6.00;;;20.30;56.80;;;;;;5030709;28;20021;-78
2023/04/21 04:23:11;;;;;;;12.13;5.97;;;20.30;56.60;;;;;;5030499;28;20391;-78
2023/04/21 04:25:38;;;;;;;10.77;5.90;;;20.30;56.60;;;;;;5030402;28;20113;-78
2023/04/21 04:28:04;;;;;;;9.75;5.90;;;20.30;56.60;;;;;;5045973;28;20029;-78
2023/04/21 04:30:32;;;;;;;12.43;6.10;;;20.30;56.90;;;;;;5034473;28;20030;-78
2023/04/21 04:32:57;;;;;;;10.55;5.57;;;20.30;56.50;;;;;;5034446;28;20035;-78
2023/04/21 04:35:23;;;;;;;10.52;5.55;;;20.30;56.70;;;;;;5032980;28;20129;-78
2023/04/21 04:37:49;;;;;;;9.50;5.70;;;20.30;56.60;;;;;;5032891;28;20128;-79
2023/04/21 04:40:15;;;;;;;10.73;5.82;;;20.30;56.70;;;;;;5034515;28;20079;-78
2023/04/21 04:42:41;;;;;;;11.90;5.35;;;20.30;56.50;;;;;;5032954;28;20518;-79
2023/04/21 04:45:08;;;;;;;13.45;5.55;;;20.30;56.70;;;;;;5034055;28;20113;-79
2023/04/21 04:47:34;;;;;;;11.52;6.43;;;20.30;56.80;;;;;;5034299;28;20036;-79
2023/04/21 04:50:00;;;;;;;9.07;5.50;;;20.30;56.80;;;;;;5032806;28;20463;-79
2023/04/21 04:52:26;;;;;;;11.32;6.00;;;20.30;56.90;;;;;;5034080;28;20057;-79
2023/04/21 04:54:51;;;;;;;12.73;6.07;;;20.30;56.80;;;;;;5033708;28;20029;-79
2023/04/21 04:57:17;;;;;;;11.40;5.72;;;20.30;56.60;;;;;;5032709;28;20029;-80
2023/04/21 04:59:43;;;;;;;11.15;5.78;;;20.30;56.60;;;;;;5032751;28;20087;-78
2023/04/21 05:02:09;;;;;;;10.43;6.03;;;20.30;56.50;;;;;;5034053;28;20108;-78
2023/04/21 05:04:35;;;;;;;11.65;5.72;;;20.30;56.40;;;;;;5033491;28;20506;-79
2023/04/21 05:07:01;;;;;;;11.00;6.40;;;20.30;56.50;;;;;;5033845;28;20029;-77
2023/04/21 05:09:27;;;;;;;10.25;5.97;;;20.30;56.30;;;;;;5033681;28;20083;-77
2023/04/21 05:11:53;;;;;;;11.23;6.20;;;20.30;56.50;;;;;;5033684;28;20033;-77
2023/04/21 05:14:18;;;;;;;8.88;5.63;;;20.30;56.60;;;;;;5033411;28;20128;-77
2023/04/21 05:16:44;;;;;;;10.07;5.72;;;20.30;56.60;;;;;;5034004;28;20121;-77
2023/04/21 05:19:10;;;;;;;12.32;5.88;;;20.30;56.50;;;;;;5033492;28;20030;-77
2023/04/21 05:21:36;;;;;;;13.30;6.30;;;20.30;56.60;;;;;;5033578;28;20078;-76
2023/04/21 05:24:02;;;;;;;9.90;5.93;;;20.30;56.30;;;;;;5033269;28;20120;-76
2023/04/21 05:26:28;;;;;;;11.88;6.30;;;20.40;56.60;;;;;;5033479;28;20030;-76
2023/04/21 05:28:57;;;;;;;10.52;6.18;;;20.30;56.40;;;;;;5032093;28;20030;-76
2023/04/21 05:31:24;;;;;;;11.30;5.95;;;20.30;56.50;;;;;;5032619;28;20033;-75
2023/04/21 05:33:50;;;;;;;9.38;5.22;;;20.30;56.60;;;;;;5031722;28;20491;-76
2023/04/21 05:36:16;;;;;;;9.45;5.82;;;20.40;56.60;;;;;;5033274;28;20028;-75
2023/04/21 05:38:42;;;;;;;11.70;6.28;;;20.30;56.20;;;;;;5033515;28;20036;-76
2023/04/21 05:41:08;;;;;;;11.05;5.90;;;20.40;56.60;;;;;;5032832;28;20021;-75
2023/04/21 05:43:34;;;;;;;9.95;5.95;;;20.30;56.70;;;;;;5032041;28;20032;-75
2023/04/21 05:46:08;;;;;;;10.98;6.03;;;20.40;56.80;;;;;;5031928;28;20025;-76
2023/04/21 05:48:34;;;;;;;12.40;5.95;;;20.30;56.70;;;;;;5033112;28;20032;-76
2023/04/21 05:51:11;;;;;;;9.57;5.78;;;20.30;56.70;;;;;;5032958;28;20376;-77
2023/04/21 05:53:38;;;;;;;11.75;5.75;;;20.30;56.80;;;;;;5033301;28;20029;-77
2023/04/21 05:56:04;;;;;;;11.52;6.22;;;20.40;56.90;;;;;;5032911;28;20099;-77
2023/04/21 05:58:30;;;;;;;10.20;6.30;;;20.40;57.10;;;;;;5031846;28;20022;-78
2023/04/21 06:00:56;;;;;;;10.55;5.78;;;20.40;56.90;;;;;;5032757;28;20033;-78
2023/04/21 06:03:21;;;;;;;10.05;6.35;;;20.30;57.00;;;;;;5032670;28;20120;-78
2023/04/21 06:05:54;;;;;;;10.30;5.72;;;20.40;56.50;;;;;;5032644;28;20076;-78
2023/04/21 06:08:20;;;;;;;14.68;5.75;;;20.30;57.00;;;;;;5031489;28;20114;-78
2023/04/21 06:10:45;;;;;;;14.68;5.93;;;20.40;57.20;;;;;;5032614;28;20041;-78
2023/04/21 06:13:11;;;;;;;13.52;5.80;;;20.40;57.50;;;;;;5032622;28;20033;-78
2023/04/21 06:15:37;;;;;;;15.43;5.75;;;20.40;57.70;;;;;;5031104;28;20033;-78
2023/04/21 06:18:03;;;;;;;13.80;5.78;;;20.40;57.70;;;;;;5032450;28;20117;-78
2023/04/21 06:20:29;;;;;;;10.70;5.45;;;20.40;57.70;;;;;;5031343;28;20049;-78
2023/04/21 06:22:55;;;;;;;9.57;5.93;;;20.40;57.50;;;;;;5031519;28;20109;-78
2023/04/21 06:25:20;;;;;;;11.77;6.07;;;20.40;57.50;;;;;;5032105;28;20033;-78
2023/04/21 06:27:46;;;;;;;10.38;5.60;;;20.40;57.60;;;;;;5032351;28;20029;-78
2023/04/21 06:30:16;;;;;;;10.77;5.78;;;20.40;57.60;;;;;;5032235;28;20406;-78
2023/04/21 06:32:44;;;;;;;11.05;6.03;;;20.40;57.40;;;;;;5032162;28;20455;-78
2023/04/21 06:35:10;;;;;;;12.85;6.13;;;20.40;57.60;;;;;;5030701;28;20118;-79
2023/04/21 06:37:36;;;;;;;9.13;5.60;;;20.40;57.60;;;;;;5032246;28;20091;-78
2023/04/21 06:40:03;;;;;;;11.65;6.05;;;20.40;57.60;;;;;;5032237;28;20449;-80
2023/04/21 06:42:29;;;;;;;13.20;6.78;;;20.40;57.60;;;;;;5014560;28;20029;-81
2023/04/21 06:44:55;;;;;;;9.93;5.57;;;20.40;57.60;;;;;;5031773;28;20048;-78
2023/04/21 06:47:21;;;;;;;11.18;6.13;;;20.40;57.70;;;;;;5031813;28;20029;-80
2023/04/21 06:49:47;;;;;;;14.05;5.65;;;20.40;57.70;;;;;;5031848;28;20029;-79
2023/04/21 06:52:13;;;;;;;11.13;5.57;;;20.40;57.90;;;;;;5030291;28;20029;-79
2023/04/21 06:54:39;;;;;;;12.98;5.70;;;20.40;58.00;;;;;;5031637;28;20506;-81
2023/04/21 06:57:05;;;;;;;11.07;5.55;;;20.50;57.80;;;;;;5030734;28;20125;-80
2023/04/21 06:59:32;;;;;;;12.52;6.43;;;20.50;58.10;;;;;;4997723;28;20112;-80
2023/04/21 07:01:57;;;;;;;10.18;5.85;;;20.40;58.10;;;;;;5030941;28;20095;-79
2023/04/21 07:04:23;;;;;;;11.13;5.80;;;20.50;58.30;;;;;;5031318;28;20540;-80
2023/04/21 07:06:49;;;;;;;10.88;5.88;;;20.50;58.20;;;;;;5031699;28;20099;-79
2023/04/21 07:09:15;;;;;;;10.50;5.53;;;20.50;58.40;;;;;;5031526;28;20022;-79
2023/04/21 07:11:40;;;;;;;12.70;6.03;;;20.50;58.40;;;;;;5030166;28;20033;-79
2023/04/21 07:14:06;;;;;;;9.52;5.60;;;20.50;58.30;;;;;;5031017;28;20503;-79
2023/04/21 07:16:32;;;;;;;10.80;6.25;;;20.60;58.40;;;;;;5031303;28;20495;-83
2023/04/21 07:18:58;;;;;;;10.27;5.90;;;20.60;58.30;;;;;;5030065;28;20029;-78
2023/04/21 07:21:24;;;;;;;10.10;5.72;;;20.60;58.40;;;;;;5030545;28;20026;-78
2023/04/21 07:23:50;;;;;;;10.73;6.18;;;20.60;58.30;;;;;;5029919;28;20059;-80
2023/04/21 07:26:16;;;;;;;9.55;5.68;;;20.60;58.50;;;;;;5029912;28;20037;-79
2023/04/21 07:28:42;;;;;;;9.70;6.13;;;20.60;58.50;;;;;;5031249;28;20100;-78
2023/04/21 07:31:08;;;;;;;9.63;5.72;;;20.60;58.40;;;;;;5029764;28;20105;-78
2023/04/21 07:33:34;;;;;;;10.60;6.00;;;20.60;59.00;;;;;;5030649;28;20030;-77
2023/04/21 07:36:00;;;;;;;11.35;6.30;;;20.60;58.40;;;;;;5031124;28;20080;-77
2023/04/21 07:38:25;;;;;;;12.20;5.97;;;20.60;58.50;;;;;;5031147;28;20025;-77
2023/04/21 07:40:51;;;;;;;9.80;5.70;;;20.60;58.70;;;;;;5031357;28;20100;-77
2023/04/21 07:43:18;;;;;;;11.02;5.80;;;20.60;58.80;;;;;;5030764;28;20467;-79
2023/04/21 07:45:45;;;;;;;10.50;6.30;;;20.60;59.00;;;;;;5030940;28;20022;-78
2023/04/21 07:48:10;;;;;;;12.25;5.95;;;20.60;59.00;;;;;;5030819;28;20057;-77
2023/04/21 07:50:36;;;;;;;12.63;6.20;;;20.60;59.10;;;;;;5030964;28;20471;-78
2023/04/21 07:53:02;;;;;;;12.60;5.72;;;20.60;58.90;;;;;;5031157;28;20025;-78
2023/04/21 07:55:28;;;;;;;11.60;6.20;;;20.60;59.00;;;;;;5030694;28;20036;-77
2023/04/21 07:57:54;;;;;;;11.98;6.20;;;20.60;59.10;;;;;;5030548;28;20041;-78
2023/04/21 08:00:20;;;;;;;11.93;5.97;;;20.60;59.10;;;;;;5030172;28;20116;-78
2023/04/21 08:02:46;;;;;;;10.75;6.22;;;20.60;59.20;;;;;;5029647;28;20096;-75
2023/04/21 08:05:12;;;;;;;13.52;6.18;;;20.60;59.10;;;;;;5030686;28;20391;-77
2023/04/21 08:07:38;;;;;;;13.85;6.75;;;20.60;59.10;;;;;;5030650;28;20032;-78
2023/04/21 08:10:05;;;;;;;10.95;6.05;;;20.70;59.20;;;;;;5013281;28;20438;-77
2023/04/21 08:12:31;;;;;;;11.55;6.30;;;20.70;59.10;;;;;;5045945;28;20033;-76
2023/04/21 08:14:57;;;;;;;15.07;6.40;;;20.60;59.10;;;;;;5029232;28;20091;-77
2023/04/21 08:17:23;;;;;;;12.68;6.43;;;20.60;59.20;;;;;;5030364;28;20035;-77
2023/04/21 08:19:49;;;;;;;12.23;5.95;;;20.70;59.10;;;;;;5030670;28;20044;-77
2023/04/21 08:22:15;;;;;;;11.18;5.72;;;20.70;59.00;;;;;;5040882;28;20029;-77
2023/04/21 08:24:40;;;;;;;12.13;6.20;;;20.70;59.10;;;;;;5010521;28;20030;-74
2023/04/21 08:27:06;;;;;;;13.15;6.35;;;20.70;58.60;;;;;;4999731;28;20428;-75
2023/04/21 08:29:32;;;;;;;14.57;6.13;;;20.70;59.00;;;;;;5005107;28;20698;-74
2023/04/21 08:31:57;;;;;;;19.20;6.85;;;20.80;58.90;;;;;;5004610;28;20017;-74
2023/04/21 08:34:23;;;;;;;15.75;6.72;;;20.80;58.60;;;;;;5014792;28;20030;-75
2023/04/21 08:36:51;;;;;;;15.88;6.50;;;20.80;58.60;;;;;;5005209;28;20570;-76
2023/04/21 08:39:17;;;;;;;16.30;5.75;;;20.80;58.70;;;;;;5022212;28;20034;-83
2023/04/21 08:41:43;;;;;;;16.60;7.53;;;20.90;58.50;;;;;;5006149;28;20030;-79
2023/04/21 08:44:10;;;;;;;12.15;6.28;;;20.80;56.40;;;;;;5007372;28;20029;-73
2023/04/21 08:46:36;;;;;;;24.92;6.90;;;20.90;56.50;;;;;;5006822;28;20041;-74
2023/04/21 08:49:02;;;;;;;11.77;5.93;;;20.80;55.90;;;;;;5038194;23;20052;-84
2023/04/21 08:51:29;;;;;;;12.00;5.93;;;20.80;56.30;;;;;;5018411;28;20478;-86
2023/04/21 08:53:55;;;;;;;14.20;6.38;;;20.80;55.60;;;;;;5029272;28;20029;-87
2023/04/21 08:56:23;;;;;;;14.40;7.20;;;20.80;55.20;;;;;;5037221;28;20580;-83
2023/04/21 08:58:48;;;;;;;12.25;7.55;;;20.80;55.10;;;;;;5058689;28;20044;-76
2023/04/21 09:01:14;;;;;;;17.83;8.05;;;20.90;54.90;;;;;;5037501;28;20292;-78
2023/04/21 09:03:40;;;;;;;14.90;8.32;;;20.90;56.00;;;;;;5047881;28;20055;-78
2023/04/21 09:06:08;;;;;;;19.52;9.02;;;20.90;54.10;;;;;;5046425;28;20013;-76
2023/04/21 09:08:38;;;;;;;23.15;8.10;;;21.00;54.60;;;;;;5046726;28;20040;-73
2023/04/21 09:11:05;;;;;;;17.55;8.73;;;21.00;53.10;;;;;;5047758;28;20048;-74
2023/04/21 09:13:33;;;;;;;28.48;7.97;;;21.00;53.80;;;;;;5047380;28;20028;-74
2023/04/21 09:16:00;;;;;;;20.83;10.27;;;21.00;52.20;;;;;;5049477;28;20053;-74
2023/04/21 09:18:35;;;;;;;15.40;8.80;;;21.10;53.80;;;;;;5051165;28;20564;-75
2023/04/21 09:21:09;;;;;;;16.38;7.47;;;21.00;53.20;;;;;;5050532;28;20044;-76
2023/04/21 09:23:49;;;;;;;18.08;7.95;;;21.00;53.40;;;;;;5049756;28;20071;-75
2023/04/21 09:26:16;;;;;;;20.38;7.90;;;21.00;52.10;;;;;;5029619;28;20056;-75
2023/04/21 09:28:44;;;;;;;21.10;7.95;;;21.00;52.50;;;;;;5031175;28;20033;-73
2023/04/21 09:31:18;;;;;;;15.85;8.00;;;21.00;52.40;;;;;;5039182;28;20406;-74
2023/04/21 09:33:48;;;;;;;16.95;7.22;;;21.00;52.20;;;;;;5048779;28;20469;-74
2023/04/21 09:36:24;;;;;;;15.40;6.72;;;21.00;51.00;;;;;;5047823;28;20013;-74
2023/04/21 09:38:58;;;;;;;13.63;6.70;;;21.00;51.50;;;;;;5045471;28;20112;-73
2023/04/21 09:41:24;;;;;;;15.77;6.80;;;20.90;51.70;;;;;;5048085;28;20060;-74
2023/04/21 09:43:50;;;;;;;14.32;7.05;;;20.90;51.80;;;;;;5049034;28;20060;-74
2023/04/21 09:46:20;;;;;;;11.88;6.95;;;20.90;51.50;;;;;;5047837;28;20029;-74
2023/04/21 09:48:49;;;;;;;13.98;6.70;;;20.90;51.50;;;;;;5049504;28;20120;-74
2023/04/21 09:51:16;;;;;;;14.52;6.78;;;20.90;51.40;;;;;;5048254;28;20486;-74
2023/04/21 09:53:44;;;;;;;13.43;6.55;;;20.90;51.10;;;;;;5048327;28;20103;-74
2023/04/21 09:56:12;;;;;;;13.70;6.97;;;20.90;51.00;;;;;;5055899;28;20048;-74
2023/04/21 09:58:56;;;;;;;11.27;7.20;;;20.90;50.90;;;;;;5070651;28;20040;-74
2023/04/21 10:01:25;;;;;;;12.77;7.32;;;20.90;50.80;;;;;;5046492;28;20021;-75
2023/04/21 10:03:52;;;;;;;13.85;6.50;;;20.90;49.20;;;;;;5050867;28;20433;-74
2023/04/21 10:06:18;;;;;;;11.98;6.82;;;20.90;48.90;;;;;;5049329;28;20475;-74
2023/04/21 10:08:45;;;;;;;10.75;5.93;;;21.00;48.70;;;;;;5051064;28;20112;-75
2023/04/21 10:11:12;;;;;;;14.20;7.60;;;20.90;49.20;;;;;;5046791;28;20060;-76
2023/04/21 10:13:39;;;;;;;19.80;7.13;;;21.00;47.90;;;;;;5044368;28;20036;-74
2023/04/21 10:16:07;;;;;;;15.18;6.68;;;21.00;47.90;;;;;;5049785;28;20487;-74
2023/04/21 10:18:46;;;;;;;12.48;6.55;;;21.00;48.70;;;;;;5048724;28;20438;-73
2023/04/21 10:21:20;;;;;;;16.02;6.45;;;21.00;49.10;;;;;;5050174;28;20032;-74
2023/04/21 10:23:51;;;;;;;13.40;6.88;;;21.00;48.80;;;;;;5050092;28;20043;-75
2023/04/21 10:26:23;;;;;;;23.50;7.25;;;20.90;48.50;;;;;;5049602;28;20014;-74
2023/04/21 10:28:59;;;;;;;15.07;6.10;;;21.00;49.70;;;;;;5049129;28;20513;-74
2023/04/21 10:31:31;;;;;;;16.98;5.97;;;21.00;49.00;;;;;;5050236;28;20502;-73
2023/04/21 10:34:08;;;;;;;21.73;6.20;;;21.00;49.70;;;;;;5049925;28;20044;-74
2023/04/21 10:36:42;;;;;;;11.68;6.15;;;21.00;49.80;;;;;;5044536;28;20086;-73
2023/04/21 10:39:11;;;;;;;17.88;6.20;;;21.00;47.80;;;;;;5048401;28;20501;-74
2023/04/21 10:41:38;;;;;;;12.67;6.33;;;21.10;48.30;;;;;;5049797;28;20493;-75
2023/04/21 10:44:06;;;;;;;25.92;6.38;;;21.00;49.90;;;;;;5048744;28;20469;-75
2023/04/21 10:46:40;;;;;;;16.98;6.28;;;21.00;50.60;;;;;;5050258;28;20110;-75
2023/04/21 10:49:23;;;;;;;15.70;6.20;;;21.00;50.10;;;;;;5049740;28;20433;-75
2023/04/21 10:54:25;;;;;;;16.77;6.07;;;21.00;50.60;;;;;;5049580;28;20574;-75
2023/04/21 10:56:53;;;;;;;23.52;6.80;;;21.00;52.90;;;;;;5049875;28;20029;-75
2023/04/21 10:59:20;;;;;;;32.78;8.25;;;21.00;52.00;;;;;;5049713;28;20060;-75
2023/04/21 11:01:46;;;;;;;37.70;7.47;;;21.00;55.20;;;;;;5049746;28;20025;-75
2023/04/21 11:04:19;;;;;;;17.17;6.15;;;21.00;56.90;;;;;;5049742;28;20024;-75
2023/04/21 11:07:04;;;;;;;25.80;7.18;;;21.00;53.10;;;;;;5049473;28;20029;-74
2023/04/21 11:09:30;;;;;;;21.55;6.50;;;21.10;53.00;;;;;;5049900;28;20067;-73
2023/04/21 11:12:02;;;;;;;17.60;6.57;;;21.10;51.80;;;;;;5048074;28;20025;-75
2023/04/21 11:14:28;;;;;;;17.10;6.43;;;21.10;54.00;;;;;;5049072;28;20060;-75
2023/04/21 11:16:54;;;;;;;17.92;5.82;;;21.00;53.10;;;;;;5048181;28;20029;-75
2023/04/21 11:19:24;;;;;;;20.42;6.70;;;21.00;51.20;;;;;;5049235;28;20059;-73
2023/04/21 11:21:53;;;;;;;17.45;6.38;;;21.00;51.80;;;;;;5048872;28;20519;-73
2023/04/21 11:24:22;;;;;;;17.25;7.50;;;21.00;50.80;;;;;;5031410;28;20039;-73
2023/04/21 11:26:48;;;;;;;15.45;6.88;;;21.00;49.60;;;;;;5049112;28;20028;-73
2023/04/21 11:29:15;;;;;;;20.10;6.45;;;21.00;50.10;;;;;;5047843;28;20081;-73
2023/04/21 11:31:44;;;;;;;15.70;6.32;;;21.00;50.30;;;;;;5049512;28;20060;-73
2023/04/21 11:34:10;;;;;;;13.90;6.15;;;21.00;49.80;;;;;;5047272;28;20032;-73
2023/04/21 11:36:44;;;;;;;14.90;6.10;;;21.00;49.90;;;;;;5049184;28;20029;-74
2023/04/21 11:39:12;;;;;;;12.93;6.28;;;21.00;49.60;;;;;;5048734;28;20025;-74
2023/04/21 11:41:46;;;;;;;17.73;6.80;;;21.00;50.00;;;;;;5048207;28;20031;-74
2023/04/21 11:44:13;;;;;;;11.75;5.72;;;21.00;50.30;;;;;;5047256;28;20021;-73
2023/04/21 11:46:45;;;;;;;18.77;5.85;;;21.00;50.60;;;;;;5048091;28;20382;-73
2023/04/21 11:49:14;;;;;;;12.20;5.55;;;21.00;50.30;;;;;;5048808;28;20683;-74
2023/04/21 11:51:43;;;;;;;17.58;6.10;;;21.00;51.60;;;;;;5048582;28;20074;-74
2023/04/21 11:54:11;;;;;;;13.88;5.90;;;20.90;50.30;;;;;;5048337;28;20033;-74
2023/04/21 11:56:40;;;;;;;13.52;6.00;;;20.90;50.90;;;;;;5048918;28;20029;-74
2023/04/21 11:59:07;;;;;;;12.98;6.05;;;20.90;51.10;;;;;;5049023;28;20059;-73
2023/04/21 12:01:33;;;;;;;13.13;5.55;;;20.90;51.10;;;;;;5048171;28;20037;-79
2023/04/21 12:03:59;;;;;;;16.40;6.18;;;20.90;51.50;;;;;;5046928;28;20037;-81
2023/04/21 12:06:27;;;;;;;11.07;5.90;;;21.00;51.50;;;;;;5030931;28;20112;-78
2023/04/21 12:09:00;;;;;;;22.30;7.25;;;21.00;49.50;;;;;;5047901;28;20103;-79
2023/04/21 12:11:28;;;;;;;15.73;6.30;;;21.00;49.80;;;;;;5049426;28;20463;-77
2023/04/21 12:13:57;;;;;;;16.95;6.50;;;21.00;50.50;;;;;;5048434;28;20037;-78
2023/04/21 12:16:28;;;;;;;12.65;6.10;;;21.00;51.30;;;;;;5048738;28;20033;-78
2023/04/21 12:18:55;;;;;;;14.02;5.60;;;21.00;51.10;;;;;;5028787;28;20079;-79
2023/04/21 12:21:25;;;;;;;19.85;6.57;;;20.90;51.50;;;;;;5029121;28;20033;-78
2023/04/21 12:23:51;;;;;;;18.08;6.47;;;20.90;51.20;;;;;;5068971;28;20451;-79
2023/04/21 12:26:16;;;;;;;12.30;5.85;;;21.00;50.40;;;;;;5068727;28;20111;-79
2023/04/21 12:28:43;;;;;;;16.80;5.57;;;20.90;50.90;;;;;;5067532;28;20426;-77
2023/04/21 12:31:09;;;;;;;15.10;6.20;;;20.90;49.60;;;;;;5069330;28;20494;-76
2023/04/21 12:33:34;;;;;;;12.80;6.25;;;21.00;50.40;;;;;;5051078;28;20039;-76
2023/04/21 12:36:00;;;;;;;19.13;6.60;;;21.00;50.70;;;;;;5050642;28;20037;-76
2023/04/21 12:38:26;;;;;;;12.73;6.20;;;21.00;49.80;;;;;;5049869;28;20040;-76
2023/04/21 12:40:52;;;;;;;11.27;5.30;;;21.00;49.20;;;;;;5067325;28;20100;-77